sensor_id;sensor_type;location;lat;lon;timestamp;P1;durP1;ratioP1;P2;durP2;ratioP2
41952;SDS011;63613;28.200;112.870;2023-02-01T00:01:08;30.23;;;19.38;;
41952;SDS011;63613;28.200;112.870;2023-02-01T00:03:35;25.92;;;17.88;;
41952;SDS011;63613;28.200;112.870;2023-02-01T00:06:22;29.13;;;18.00;;
41952;SDS011;63613;28.200;112.870;2023-02-01T00:08:52;27.20;;;18.55;;
41952;SDS011;63613;28.200;112.870;2023-02-01T00:11:19;25.70;;;17.30;;
41952;SDS011;63613;28.200;112.870;2023-02-01T00:13:47;28.42;;;17.90;;
41952;SDS011;63613;28.200;112.870;2023-02-01T00:16:15;27.42;;;17.90;;
41952;SDS011;63613;28.200;112.870;2023-02-01T00:18:48;26.80;;;16.95;;
41952;SDS011;63613;28.200;112.870;2023-02-01T00:21:17;27.67;;;18.10;;
41952;SDS011;63613;28.200;112.870;2023-02-01T00:23:48;26.80;;;17.63;;
41952;SDS011;63613;28.200;112.870;2023-02-01T00:26:16;28.70;;;18.17;;
41952;SDS011;63613;28.200;112.870;2023-02-01T00:29:05;23.65;;;16.75;;
41952;SDS011;63613;28.200;112.870;2023-02-01T00:31:36;31.52;;;18.13;;
41952;SDS011;63613;28.200;112.870;2023-02-01T00:34:03;24.70;;;16.98;;
41952;SDS011;63613;28.200;112.870;2023-02-01T00:36:30;26.02;;;18.65;;
41952;SDS011;63613;28.200;112.870;2023-02-01T00:38:57;27.17;;;17.67;;
41952;SDS011;63613;28.200;112.870;2023-02-01T00:41:24;25.00;;;17.98;;
41952;SDS011;63613;28.200;112.870;2023-02-01T00:43:51;30.27;;;18.55;;
41952;SDS011;63613;28.200;112.870;2023-02-01T00:46:19;27.98;;;17.90;;
41952;SDS011;63613;28.200;112.870;2023-02-01T00:48:47;28.38;;;19.33;;
41952;SDS011;63613;28.200;112.870;2023-02-01T00:51:15;29.73;;;19.98;;
41952;SDS011;63613;28.200;112.870;2023-02-01T00:53:47;28.80;;;19.05;;
41952;SDS011;63613;28.200;112.870;2023-02-01T00:56:14;27.52;;;18.73;;
41952;SDS011;63613;28.200;112.870;2023-02-01T00:58:41;27.67;;;18.65;;
41952;SDS011;63613;28.200;112.870;2023-02-01T01:03:41;29.80;;;20.55;;
41952;SDS011;63613;28.200;112.870;2023-02-01T01:06:15;28.10;;;19.95;;
41952;SDS011;63613;28.200;112.870;2023-02-01T01:08:45;31.63;;;20.37;;
41952;SDS011;63613;28.200;112.870;2023-02-01T01:11:20;28.50;;;21.02;;
41952;SDS011;63613;28.200;112.870;2023-02-01T01:13:50;30.75;;;20.48;;
41952;SDS011;63613;28.200;112.870;2023-02-01T01:16:18;30.58;;;21.52;;
41952;SDS011;63613;28.200;112.870;2023-02-01T01:18:46;29.80;;;20.80;;
41952;SDS011;63613;28.200;112.870;2023-02-01T01:21:13;30.13;;;22.08;;
41952;SDS011;63613;28.200;112.870;2023-02-01T01:24:01;32.75;;;20.92;;
41952;SDS011;63613;28.200;112.870;2023-02-01T01:26:28;31.40;;;21.95;;
41952;SDS011;63613;28.200;112.870;2023-02-01T01:28:56;30.27;;;21.30;;
41952;SDS011;63613;28.200;112.870;2023-02-01T01:31:24;32.25;;;21.27;;
41952;SDS011;63613;28.200;112.870;2023-02-01T01:33:52;30.48;;;21.15;;
41952;SDS011;63613;28.200;112.870;2023-02-01T01:36:20;28.73;;;20.33;;
41952;SDS011;63613;28.200;112.870;2023-02-01T01:38:48;28.95;;;21.90;;
41952;SDS011;63613;28.200;112.870;2023-02-01T01:41:25;32.15;;;21.98;;
41952;SDS011;63613;28.200;112.870;2023-02-01T01:43:57;32.60;;;22.13;;
41952;SDS011;63613;28.200;112.870;2023-02-01T01:46:28;32.10;;;21.83;;
41952;SDS011;63613;28.200;112.870;2023-02-01T01:49:03;31.52;;;21.60;;
41952;SDS011;63613;28.200;112.870;2023-02-01T01:51:38;29.90;;;22.00;;
41952;SDS011;63613;28.200;112.870;2023-02-01T01:54:28;30.27;;;21.25;;
41952;SDS011;63613;28.200;112.870;2023-02-01T01:57:18;32.03;;;21.40;;
41952;SDS011;63613;28.200;112.870;2023-02-01T01:59:51;29.67;;;22.20;;
41952;SDS011;63613;28.200;112.870;2023-02-01T02:02:25;29.52;;;21.85;;
41952;SDS011;63613;28.200;112.870;2023-02-01T02:04:52;33.97;;;22.73;;
41952;SDS011;63613;28.200;112.870;2023-02-01T02:07:23;32.40;;;22.30;;
41952;SDS011;63613;28.200;112.870;2023-02-01T02:09:55;29.02;;;21.40;;
41952;SDS011;63613;28.200;112.870;2023-02-01T02:12:24;33.25;;;22.45;;
41952;SDS011;63613;28.200;112.870;2023-02-01T02:14:52;29.95;;;23.13;;
41952;SDS011;63613;28.200;112.870;2023-02-01T02:20:28;36.30;;;23.90;;
41952;SDS011;63613;28.200;112.870;2023-02-01T02:42:39;34.78;;;23.92;;
41952;SDS011;63613;28.200;112.870;2023-02-01T02:51:41;34.20;;;25.52;;
41952;SDS011;63613;28.200;112.870;2023-02-01T02:54:43;35.90;;;25.30;;
41952;SDS011;63613;28.200;112.870;2023-02-01T02:57:32;36.40;;;26.85;;
41952;SDS011;63613;28.200;112.870;2023-02-01T03:00:24;37.35;;;26.98;;
41952;SDS011;63613;28.200;112.870;2023-02-01T03:03:15;39.38;;;26.70;;
41952;SDS011;63613;28.200;112.870;2023-02-01T03:06:00;40.58;;;28.50;;
41952;SDS011;63613;28.200;112.870;2023-02-01T03:08:29;38.58;;;27.63;;
41952;SDS011;63613;28.200;112.870;2023-02-01T03:11:00;39.63;;;29.10;;
41952;SDS011;63613;28.200;112.870;2023-02-01T03:13:49;36.50;;;27.48;;
41952;SDS011;63613;28.200;112.870;2023-02-01T03:16:32;36.85;;;27.27;;
41952;SDS011;63613;28.200;112.870;2023-02-01T03:21:53;40.65;;;29.08;;
41952;SDS011;63613;28.200;112.870;2023-02-01T03:24:34;36.87;;;28.20;;
41952;SDS011;63613;28.200;112.870;2023-02-01T03:30:07;40.20;;;28.90;;
41952;SDS011;63613;28.200;112.870;2023-02-01T03:32:38;39.97;;;29.40;;
41952;SDS011;63613;28.200;112.870;2023-02-01T03:38:18;39.20;;;29.48;;
41952;SDS011;63613;28.200;112.870;2023-02-01T03:41:40;40.67;;;28.52;;
41952;SDS011;63613;28.200;112.870;2023-02-01T03:43:56;40.47;;;30.08;;
41952;SDS011;63613;28.200;112.870;2023-02-01T03:46:42;41.17;;;30.02;;
41952;SDS011;63613;28.200;112.870;2023-02-01T03:49:59;42.38;;;31.35;;
41952;SDS011;63613;28.200;112.870;2023-02-01T03:52:06;43.20;;;32.00;;
41952;SDS011;63613;28.200;112.870;2023-02-01T03:54:36;42.88;;;32.35;;
41952;SDS011;63613;28.200;112.870;2023-02-01T03:57:06;40.05;;;30.75;;
41952;SDS011;63613;28.200;112.870;2023-02-01T03:59:41;43.53;;;31.60;;
41952;SDS011;63613;28.200;112.870;2023-02-01T04:02:10;44.05;;;32.28;;
41952;SDS011;63613;28.200;112.870;2023-02-01T04:04:37;45.92;;;32.42;;
41952;SDS011;63613;28.200;112.870;2023-02-01T04:07:08;44.80;;;32.95;;
41952;SDS011;63613;28.200;112.870;2023-02-01T04:09:35;43.60;;;32.88;;
41952;SDS011;63613;28.200;112.870;2023-02-01T04:12:21;44.17;;;31.90;;
41952;SDS011;63613;28.200;112.870;2023-02-01T04:14:48;46.60;;;34.53;;
41952;SDS011;63613;28.200;112.870;2023-02-01T04:17:15;46.70;;;34.10;;
41952;SDS011;63613;28.200;112.870;2023-02-01T04:19:42;51.45;;;37.00;;
41952;SDS011;63613;28.200;112.870;2023-02-01T04:22:09;45.80;;;34.35;;
41952;SDS011;63613;28.200;112.870;2023-02-01T04:24:37;50.60;;;37.00;;
41952;SDS011;63613;28.200;112.870;2023-02-01T04:27:04;51.63;;;38.03;;
41952;SDS011;63613;28.200;112.870;2023-02-01T04:29:34;48.67;;;36.25;;
41952;SDS011;63613;28.200;112.870;2023-02-01T04:32:01;52.00;;;37.75;;
41952;SDS011;63613;28.200;112.870;2023-02-01T04:34:28;52.25;;;38.08;;
41952;SDS011;63613;28.200;112.870;2023-02-01T04:36:54;51.28;;;37.88;;
41952;SDS011;63613;28.200;112.870;2023-02-01T04:39:25;56.92;;;39.30;;
41952;SDS011;63613;28.200;112.870;2023-02-01T04:41:52;55.58;;;39.30;;
41952;SDS011;63613;28.200;112.870;2023-02-01T04:44:18;52.47;;;39.30;;
41952;SDS011;63613;28.200;112.870;2023-02-01T04:46:46;57.95;;;40.72;;
41952;SDS011;63613;28.200;112.870;2023-02-01T04:49:34;61.83;;;43.35;;
41952;SDS011;63613;28.200;112.870;2023-02-01T04:52:01;68.72;;;46.45;;
41952;SDS011;63613;28.200;112.870;2023-02-01T04:54:28;80.28;;;52.00;;
41952;SDS011;63613;28.200;112.870;2023-02-01T04:56:55;92.07;;;54.08;;
41952;SDS011;63613;28.200;112.870;2023-02-01T04:59:22;89.78;;;54.35;;
41952;SDS011;63613;28.200;112.870;2023-02-01T05:01:49;95.82;;;57.10;;
41952;SDS011;63613;28.200;112.870;2023-02-01T05:04:16;94.78;;;57.15;;
41952;SDS011;63613;28.200;112.870;2023-02-01T05:06:45;107.80;;;59.67;;
41952;SDS011;63613;28.200;112.870;2023-02-01T05:09:32;98.47;;;56.30;;
41952;SDS011;63613;28.200;112.870;2023-02-01T05:11:59;100.45;;;59.22;;
41952;SDS011;63613;28.200;112.870;2023-02-01T05:14:44;107.68;;;63.95;;
41952;SDS011;63613;28.200;112.870;2023-02-01T05:17:11;109.53;;;62.33;;
41952;SDS011;63613;28.200;112.870;2023-02-01T05:19:38;106.85;;;62.03;;
41952;SDS011;63613;28.200;112.870;2023-02-01T05:22:04;108.38;;;62.95;;
41952;SDS011;63613;28.200;112.870;2023-02-01T05:24:31;105.25;;;61.47;;
41952;SDS011;63613;28.200;112.870;2023-02-01T05:27:04;105.55;;;61.03;;
41952;SDS011;63613;28.200;112.870;2023-02-01T05:29:31;98.28;;;58.88;;
41952;SDS011;63613;28.200;112.870;2023-02-01T05:31:59;109.47;;;63.10;;
41952;SDS011;63613;28.200;112.870;2023-02-01T05:34:29;102.22;;;61.38;;
41952;SDS011;63613;28.200;112.870;2023-02-01T05:36:55;107.25;;;63.35;;
41952;SDS011;63613;28.200;112.870;2023-02-01T05:39:44;102.90;;;61.25;;
41952;SDS011;63613;28.200;112.870;2023-02-01T05:42:31;101.93;;;60.85;;
41952;SDS011;63613;28.200;112.870;2023-02-01T05:44:58;108.35;;;65.18;;
41952;SDS011;63613;28.200;112.870;2023-02-01T05:47:25;103.47;;;61.65;;
41952;SDS011;63613;28.200;112.870;2023-02-01T05:50:14;101.00;;;63.25;;
41952;SDS011;63613;28.200;112.870;2023-02-01T05:52:42;104.78;;;61.53;;
41952;SDS011;63613;28.200;112.870;2023-02-01T05:55:09;101.43;;;61.33;;
41952;SDS011;63613;28.200;112.870;2023-02-01T05:57:35;97.07;;;58.95;;
41952;SDS011;63613;28.200;112.870;2023-02-01T06:00:23;99.63;;;60.38;;
41952;SDS011;63613;28.200;112.870;2023-02-01T06:02:50;97.60;;;59.92;;
41952;SDS011;63613;28.200;112.870;2023-02-01T06:05:16;97.40;;;60.58;;
41952;SDS011;63613;28.200;112.870;2023-02-01T06:07:47;97.75;;;62.28;;
41952;SDS011;63613;28.200;112.870;2023-02-01T06:10:17;104.00;;;64.40;;
41952;SDS011;63613;28.200;112.870;2023-02-01T06:12:44;99.22;;;59.70;;
41952;SDS011;63613;28.200;112.870;2023-02-01T06:15:17;100.65;;;63.83;;
41952;SDS011;63613;28.200;112.870;2023-02-01T06:17:44;104.82;;;63.70;;
41952;SDS011;63613;28.200;112.870;2023-02-01T06:20:12;101.10;;;62.63;;
41952;SDS011;63613;28.200;112.870;2023-02-01T06:22:40;97.28;;;60.92;;
41952;SDS011;63613;28.200;112.870;2023-02-01T06:25:07;96.57;;;61.60;;
41952;SDS011;63613;28.200;112.870;2023-02-01T06:27:38;98.82;;;61.55;;
41952;SDS011;63613;28.200;112.870;2023-02-01T06:30:05;97.10;;;61.35;;
41952;SDS011;63613;28.200;112.870;2023-02-01T06:32:38;102.18;;;63.20;;
41952;SDS011;63613;28.200;112.870;2023-02-01T06:35:10;95.90;;;60.72;;
41952;SDS011;63613;28.200;112.870;2023-02-01T06:37:41;92.35;;;59.90;;
41952;SDS011;63613;28.200;112.870;2023-02-01T06:40:08;102.93;;;64.13;;
41952;SDS011;63613;28.200;112.870;2023-02-01T06:42:36;99.05;;;63.15;;
41952;SDS011;63613;28.200;112.870;2023-02-01T06:45:03;100.38;;;65.40;;
41952;SDS011;63613;28.200;112.870;2023-02-01T06:47:34;92.72;;;63.42;;
41952;SDS011;63613;28.200;112.870;2023-02-01T06:50:01;89.05;;;58.97;;
41952;SDS011;63613;28.200;112.870;2023-02-01T06:52:29;99.35;;;63.40;;
41952;SDS011;63613;28.200;112.870;2023-02-01T06:54:56;95.30;;;62.20;;
41952;SDS011;63613;28.200;112.870;2023-02-01T06:57:23;96.15;;;61.53;;
41952;SDS011;63613;28.200;112.870;2023-02-01T06:59:55;90.95;;;62.53;;
41952;SDS011;63613;28.200;112.870;2023-02-01T07:02:23;93.35;;;60.03;;
41952;SDS011;63613;28.200;112.870;2023-02-01T07:04:50;96.18;;;61.95;;
41952;SDS011;63613;28.200;112.870;2023-02-01T07:07:17;88.53;;;58.70;;
41952;SDS011;63613;28.200;112.870;2023-02-01T07:09:45;92.07;;;61.88;;
41952;SDS011;63613;28.200;112.870;2023-02-01T07:12:32;91.57;;;58.72;;
41952;SDS011;63613;28.200;112.870;2023-02-01T07:14:58;87.25;;;58.47;;
41952;SDS011;63613;28.200;112.870;2023-02-01T07:17:28;94.13;;;63.20;;
41952;SDS011;63613;28.200;112.870;2023-02-01T07:19:57;91.43;;;60.10;;
41952;SDS011;63613;28.200;112.870;2023-02-01T07:22:27;92.40;;;59.97;;
41952;SDS011;63613;28.200;112.870;2023-02-01T07:24:54;91.57;;;59.40;;
41952;SDS011;63613;28.200;112.870;2023-02-01T07:27:41;88.20;;;59.13;;
41952;SDS011;63613;28.200;112.870;2023-02-01T07:30:08;86.60;;;58.80;;
41952;SDS011;63613;28.200;112.870;2023-02-01T07:32:36;88.25;;;58.67;;
41952;SDS011;63613;28.200;112.870;2023-02-01T07:35:27;89.47;;;60.33;;
41952;SDS011;63613;28.200;112.870;2023-02-01T07:37:54;90.60;;;60.78;;
41952;SDS011;63613;28.200;112.870;2023-02-01T07:40:28;87.32;;;60.60;;
41952;SDS011;63613;28.200;112.870;2023-02-01T07:42:55;90.60;;;61.15;;
41952;SDS011;63613;28.200;112.870;2023-02-01T07:45:24;92.20;;;62.85;;
41952;SDS011;63613;28.200;112.870;2023-02-01T07:47:51;89.35;;;61.58;;
41952;SDS011;63613;28.200;112.870;2023-02-01T07:50:20;85.97;;;59.35;;
41952;SDS011;63613;28.200;112.870;2023-02-01T07:52:47;85.95;;;60.40;;
41952;SDS011;63613;28.200;112.870;2023-02-01T07:55:14;96.10;;;65.72;;
41952;SDS011;63613;28.200;112.870;2023-02-01T07:57:41;90.95;;;61.05;;
41952;SDS011;63613;28.200;112.870;2023-02-01T08:00:09;90.10;;;59.35;;
41952;SDS011;63613;28.200;112.870;2023-02-01T08:02:57;85.30;;;59.60;;
41952;SDS011;63613;28.200;112.870;2023-02-01T08:05:26;94.25;;;63.55;;
41952;SDS011;63613;28.200;112.870;2023-02-01T08:07:52;86.93;;;59.85;;
41952;SDS011;63613;28.200;112.870;2023-02-01T08:10:21;92.10;;;62.08;;
41952;SDS011;63613;28.200;112.870;2023-02-01T08:12:47;91.90;;;61.80;;
41952;SDS011;63613;28.200;112.870;2023-02-01T08:15:17;88.45;;;60.65;;
41952;SDS011;63613;28.200;112.870;2023-02-01T08:17:48;90.70;;;63.17;;
41952;SDS011;63613;28.200;112.870;2023-02-01T08:20:15;91.70;;;63.30;;
41952;SDS011;63613;28.200;112.870;2023-02-01T08:22:43;91.50;;;62.72;;
41952;SDS011;63613;28.200;112.870;2023-02-01T08:25:12;92.22;;;63.20;;
41952;SDS011;63613;28.200;112.870;2023-02-01T08:27:39;91.07;;;59.47;;
41952;SDS011;63613;28.200;112.870;2023-02-01T08:30:09;88.22;;;60.40;;
41952;SDS011;63613;28.200;112.870;2023-02-01T08:32:37;85.47;;;58.15;;
41952;SDS011;63613;28.200;112.870;2023-02-01T08:35:05;93.10;;;63.15;;
41952;SDS011;63613;28.200;112.870;2023-02-01T08:37:32;94.50;;;62.78;;
41952;SDS011;63613;28.200;112.870;2023-02-01T08:39:59;87.57;;;62.85;;
41952;SDS011;63613;28.200;112.870;2023-02-01T08:42:26;88.00;;;58.92;;
41952;SDS011;63613;28.200;112.870;2023-02-01T08:45:10;92.20;;;61.42;;
41952;SDS011;63613;28.200;112.870;2023-02-01T08:47:37;100.00;;;65.03;;
41952;SDS011;63613;28.200;112.870;2023-02-01T08:50:04;87.05;;;61.20;;
41952;SDS011;63613;28.200;112.870;2023-02-01T08:52:53;91.40;;;61.13;;
41952;SDS011;63613;28.200;112.870;2023-02-01T08:55:20;92.40;;;63.83;;
41952;SDS011;63613;28.200;112.870;2023-02-01T08:57:47;90.00;;;60.13;;
41952;SDS011;63613;28.200;112.870;2023-02-01T09:00:18;96.65;;;63.20;;
41952;SDS011;63613;28.200;112.870;2023-02-01T09:02:45;90.25;;;61.40;;
41952;SDS011;63613;28.200;112.870;2023-02-01T09:05:13;95.07;;;65.05;;
41952;SDS011;63613;28.200;112.870;2023-02-01T09:07:41;88.10;;;59.50;;
41952;SDS011;63613;28.200;112.870;2023-02-01T09:10:08;91.18;;;62.63;;
41952;SDS011;63613;28.200;112.870;2023-02-01T09:12:36;95.72;;;61.97;;
41952;SDS011;63613;28.200;112.870;2023-02-01T09:15:24;96.30;;;65.85;;
41952;SDS011;63613;28.200;112.870;2023-02-01T09:17:51;91.72;;;64.20;;
41952;SDS011;63613;28.200;112.870;2023-02-01T09:20:20;90.53;;;61.65;;
41952;SDS011;63613;28.200;112.870;2023-02-01T09:22:50;93.30;;;62.97;;
41952;SDS011;63613;28.200;112.870;2023-02-01T09:25:19;94.20;;;64.05;;
41952;SDS011;63613;28.200;112.870;2023-02-01T09:27:48;95.88;;;63.22;;
41952;SDS011;63613;28.200;112.870;2023-02-01T09:30:14;92.70;;;62.70;;
41952;SDS011;63613;28.200;112.870;2023-02-01T09:32:41;92.22;;;63.58;;
41952;SDS011;63613;28.200;112.870;2023-02-01T09:35:09;90.28;;;63.17;;
41952;SDS011;63613;28.200;112.870;2023-02-01T09:37:36;89.32;;;64.22;;
41952;SDS011;63613;28.200;112.870;2023-02-01T09:40:03;92.20;;;64.68;;
41952;SDS011;63613;28.200;112.870;2023-02-01T09:42:36;90.63;;;63.38;;
41952;SDS011;63613;28.200;112.870;2023-02-01T09:48:23;91.90;;;64.30;;
41952;SDS011;63613;28.200;112.870;2023-02-01T09:50:55;89.45;;;62.25;;
41952;SDS011;63613;28.200;112.870;2023-02-01T09:53:46;90.32;;;63.10;;
41952;SDS011;63613;28.200;112.870;2023-02-01T09:56:14;96.22;;;65.45;;
41952;SDS011;63613;28.200;112.870;2023-02-01T09:58:55;91.70;;;63.67;;
41952;SDS011;63613;28.200;112.870;2023-02-01T10:01:51;96.95;;;66.32;;
41952;SDS011;63613;28.200;112.870;2023-02-01T10:04:20;94.05;;;64.72;;
41952;SDS011;63613;28.200;112.870;2023-02-01T10:06:54;92.38;;;64.60;;
41952;SDS011;63613;28.200;112.870;2023-02-01T10:21:04;90.88;;;62.83;;
41952;SDS011;63613;28.200;112.870;2023-02-01T10:23:57;88.25;;;63.95;;
41952;SDS011;63613;28.200;112.870;2023-02-01T10:26:38;91.65;;;63.88;;
41952;SDS011;63613;28.200;112.870;2023-02-01T10:29:16;93.85;;;65.32;;
41952;SDS011;63613;28.200;112.870;2023-02-01T10:31:46;94.72;;;64.35;;
41952;SDS011;63613;28.200;112.870;2023-02-01T10:34:21;111.15;;;71.68;;
41952;SDS011;63613;28.200;112.870;2023-02-01T10:36:55;115.18;;;73.28;;
41952;SDS011;63613;28.200;112.870;2023-02-01T10:39:47;127.47;;;76.65;;
41952;SDS011;63613;28.200;112.870;2023-02-01T10:42:18;132.57;;;84.35;;
41952;SDS011;63613;28.200;112.870;2023-02-01T10:44:49;129.07;;;82.05;;
41952;SDS011;63613;28.200;112.870;2023-02-01T10:47:16;143.63;;;86.20;;
41952;SDS011;63613;28.200;112.870;2023-02-01T10:52:51;154.00;;;94.72;;
41952;SDS011;63613;28.200;112.870;2023-02-01T10:58:17;166.75;;;99.15;;
41952;SDS011;63613;28.200;112.870;2023-02-01T11:01:04;172.05;;;101.35;;
41952;SDS011;63613;28.200;112.870;2023-02-01T11:03:39;175.50;;;102.90;;
41952;SDS011;63613;28.200;112.870;2023-02-01T11:14:15;176.00;;;103.50;;
41952;SDS011;63613;28.200;112.870;2023-02-01T11:17:32;172.90;;;102.50;;
41952;SDS011;63613;28.200;112.870;2023-02-01T11:19:44;171.07;;;103.47;;
41952;SDS011;63613;28.200;112.870;2023-02-01T11:22:12;169.95;;;102.60;;
41952;SDS011;63613;28.200;112.870;2023-02-01T11:24:41;167.20;;;100.30;;
41952;SDS011;63613;28.200;112.870;2023-02-01T11:27:32;167.98;;;100.90;;
41952;SDS011;63613;28.200;112.870;2023-02-01T11:30:00;168.40;;;97.45;;
41952;SDS011;63613;28.200;112.870;2023-02-01T11:32:29;182.40;;;101.72;;
41952;SDS011;63613;28.200;112.870;2023-02-01T11:35:02;164.93;;;100.25;;
41952;SDS011;63613;28.200;112.870;2023-02-01T11:37:38;164.30;;;99.78;;
41952;SDS011;63613;28.200;112.870;2023-02-01T11:40:34;162.68;;;96.05;;
41952;SDS011;63613;28.200;112.870;2023-02-01T11:46:00;161.52;;;96.00;;
41952;SDS011;63613;28.200;112.870;2023-02-01T11:48:30;167.07;;;97.80;;
41952;SDS011;63613;28.200;112.870;2023-02-01T12:04:29;153.98;;;91.88;;
41952;SDS011;63613;28.200;112.870;2023-02-01T12:12:24;144.82;;;88.45;;
41952;SDS011;63613;28.200;112.870;2023-02-01T12:21:02;143.38;;;87.88;;
41952;SDS011;63613;28.200;112.870;2023-02-01T12:38:14;146.05;;;89.50;;
41952;SDS011;63613;28.200;112.870;2023-02-01T12:46:43;142.07;;;86.78;;
41952;SDS011;63613;28.200;112.870;2023-02-01T12:55:41;136.70;;;85.28;;
41952;SDS011;63613;28.200;112.870;2023-02-01T12:58:42;133.40;;;86.13;;
41952;SDS011;63613;28.200;112.870;2023-02-01T13:01:42;138.80;;;86.82;;
41952;SDS011;63613;28.200;112.870;2023-02-01T13:07:44;144.15;;;86.82;;
41952;SDS011;63613;28.200;112.870;2023-02-01T13:16:02;135.57;;;84.82;;
41952;SDS011;63613;28.200;112.870;2023-02-01T13:18:41;143.18;;;88.78;;
41952;SDS011;63613;28.200;112.870;2023-02-01T13:21:27;139.50;;;89.78;;
41952;SDS011;63613;28.200;112.870;2023-02-01T13:23:58;134.52;;;85.80;;
41952;SDS011;63613;28.200;112.870;2023-02-01T13:26:25;132.57;;;86.55;;
41952;SDS011;63613;28.200;112.870;2023-02-01T13:28:56;136.73;;;84.95;;
41952;SDS011;63613;28.200;112.870;2023-02-01T13:42:29;126.10;;;86.18;;
41952;SDS011;63613;28.200;112.870;2023-02-01T13:45:22;127.47;;;83.97;;
41952;SDS011;63613;28.200;112.870;2023-02-01T13:47:49;127.70;;;84.65;;
41952;SDS011;63613;28.200;112.870;2023-02-01T13:50:22;135.38;;;86.82;;
41952;SDS011;63613;28.200;112.870;2023-02-01T13:53:00;129.30;;;84.55;;
41952;SDS011;63613;28.200;112.870;2023-02-01T13:56:07;132.95;;;85.43;;
41952;SDS011;63613;28.200;112.870;2023-02-01T13:58:42;129.30;;;82.97;;
41952;SDS011;63613;28.200;112.870;2023-02-01T14:03:51;126.32;;;82.50;;
41952;SDS011;63613;28.200;112.870;2023-02-01T14:11:50;122.03;;;82.47;;
41952;SDS011;63613;28.200;112.870;2023-02-01T14:19:21;119.07;;;81.32;;
41952;SDS011;63613;28.200;112.870;2023-02-01T14:21:57;124.97;;;84.07;;
41952;SDS011;63613;28.200;112.870;2023-02-01T14:24:56;119.15;;;82.18;;
41952;SDS011;63613;28.200;112.870;2023-02-01T14:27:26;125.65;;;82.70;;
41952;SDS011;63613;28.200;112.870;2023-02-01T14:30:04;125.13;;;84.25;;
41952;SDS011;63613;28.200;112.870;2023-02-01T14:32:35;127.25;;;83.50;;
41952;SDS011;63613;28.200;112.870;2023-02-01T14:35:12;126.00;;;82.57;;
41952;SDS011;63613;28.200;112.870;2023-02-01T14:37:53;120.32;;;80.28;;
41952;SDS011;63613;28.200;112.870;2023-02-01T14:40:28;120.78;;;83.35;;
41952;SDS011;63613;28.200;112.870;2023-02-01T14:42:55;116.40;;;80.15;;
41952;SDS011;63613;28.200;112.870;2023-02-01T14:50:46;123.53;;;82.60;;
41952;SDS011;63613;28.200;112.870;2023-02-01T14:53:27;133.98;;;86.75;;
41952;SDS011;63613;28.200;112.870;2023-02-01T15:01:21;119.72;;;81.43;;
41952;SDS011;63613;28.200;112.870;2023-02-01T15:06:54;117.43;;;79.18;;
41952;SDS011;63613;28.200;112.870;2023-02-01T15:12:23;124.10;;;83.38;;
41952;SDS011;63613;28.200;112.870;2023-02-01T15:15:09;125.25;;;81.95;;
41952;SDS011;63613;28.200;112.870;2023-02-01T15:17:54;124.90;;;82.93;;
41952;SDS011;63613;28.200;112.870;2023-02-01T15:20:24;130.60;;;85.07;;
41952;SDS011;63613;28.200;112.870;2023-02-01T15:23:03;122.90;;;82.47;;
41952;SDS011;63613;28.200;112.870;2023-02-01T15:25:44;116.18;;;83.00;;
41952;SDS011;63613;28.200;112.870;2023-02-01T15:28:12;125.18;;;83.07;;
41952;SDS011;63613;28.200;112.870;2023-02-01T15:30:51;120.45;;;83.30;;
41952;SDS011;63613;28.200;112.870;2023-02-01T15:33:20;121.30;;;81.70;;
41952;SDS011;63613;28.200;112.870;2023-02-01T15:35:48;112.75;;;80.82;;
41952;SDS011;63613;28.200;112.870;2023-02-01T15:41:07;121.57;;;82.55;;
41952;SDS011;63613;28.200;112.870;2023-02-01T15:43:40;117.57;;;80.70;;
41952;SDS011;63613;28.200;112.870;2023-02-01T15:46:11;121.70;;;82.03;;
41952;SDS011;63613;28.200;112.870;2023-02-01T15:48:51;120.28;;;83.28;;
41952;SDS011;63613;28.200;112.870;2023-02-01T15:51:23;119.43;;;82.68;;
41952;SDS011;63613;28.200;112.870;2023-02-01T15:54:04;119.65;;;81.07;;
41952;SDS011;63613;28.200;112.870;2023-02-01T15:56:35;126.43;;;83.18;;
41952;SDS011;63613;28.200;112.870;2023-02-01T15:59:16;121.00;;;80.60;;
41952;SDS011;63613;28.200;112.870;2023-02-01T16:01:46;121.75;;;83.60;;
41952;SDS011;63613;28.200;112.870;2023-02-01T16:04:21;131.40;;;86.40;;
41952;SDS011;63613;28.200;112.870;2023-02-01T16:06:59;118.18;;;79.80;;
41952;SDS011;63613;28.200;112.870;2023-02-01T16:09:51;123.32;;;80.55;;
41952;SDS011;63613;28.200;112.870;2023-02-01T16:12:28;118.40;;;81.28;;
41952;SDS011;63613;28.200;112.870;2023-02-01T16:15:04;118.88;;;79.38;;
41952;SDS011;63613;28.200;112.870;2023-02-01T16:17:32;119.47;;;80.93;;
41952;SDS011;63613;28.200;112.870;2023-02-01T16:19:59;118.78;;;82.00;;
41952;SDS011;63613;28.200;112.870;2023-02-01T16:22:28;115.20;;;82.07;;
41952;SDS011;63613;28.200;112.870;2023-02-01T16:24:54;117.93;;;82.03;;
41952;SDS011;63613;28.200;112.870;2023-02-01T16:27:23;117.32;;;82.53;;
41952;SDS011;63613;28.200;112.870;2023-02-01T16:29:50;115.15;;;79.18;;
41952;SDS011;63613;28.200;112.870;2023-02-01T16:32:21;119.28;;;82.57;;
41952;SDS011;63613;28.200;112.870;2023-02-01T16:34:48;118.00;;;83.85;;
41952;SDS011;63613;28.200;112.870;2023-02-01T16:37:20;122.13;;;86.15;;
41952;SDS011;63613;28.200;112.870;2023-02-01T16:39:48;115.13;;;80.20;;
41952;SDS011;63613;28.200;112.870;2023-02-01T16:42:20;125.82;;;88.07;;
41952;SDS011;63613;28.200;112.870;2023-02-01T16:44:47;121.28;;;84.75;;
41952;SDS011;63613;28.200;112.870;2023-02-01T16:47:17;120.75;;;85.05;;
41952;SDS011;63613;28.200;112.870;2023-02-01T16:49:50;121.63;;;83.35;;
41952;SDS011;63613;28.200;112.870;2023-02-01T16:52:24;119.90;;;80.63;;
41952;SDS011;63613;28.200;112.870;2023-02-01T16:54:52;119.68;;;80.55;;
41952;SDS011;63613;28.200;112.870;2023-02-01T16:57:19;121.20;;;82.97;;
41952;SDS011;63613;28.200;112.870;2023-02-01T16:59:49;121.82;;;83.30;;
41952;SDS011;63613;28.200;112.870;2023-02-01T17:02:17;122.30;;;84.57;;
41952;SDS011;63613;28.200;112.870;2023-02-01T17:04:46;124.32;;;85.32;;
41952;SDS011;63613;28.200;112.870;2023-02-01T17:07:14;118.85;;;81.72;;
41952;SDS011;63613;28.200;112.870;2023-02-01T17:09:42;121.85;;;83.28;;
41952;SDS011;63613;28.200;112.870;2023-02-01T17:12:27;122.80;;;85.03;;
41952;SDS011;63613;28.200;112.870;2023-02-01T17:14:55;116.15;;;83.28;;
41952;SDS011;63613;28.200;112.870;2023-02-01T17:17:27;123.82;;;84.20;;
41952;SDS011;63613;28.200;112.870;2023-02-01T17:19:58;113.05;;;77.40;;